PWSweather.com
Personal Weather Stations
Station Observations
133525
French Quarters West Seneca , West Seneca, NY 14224

French Quarters West Seneca West Seneca, NY 14224

Lat: 42.850058, Lon: -78.799754

Elevation: 603

Station Type: Davis Vantage Vue pro2

http://westsenecaweather.com/

High Low Average
Temperature 60.5°F15.8°C 16.9°F-8.4°C 41.7°F5.4°C
Dew Point 55.4°F13.0°C 15.0°F-9.4°C 38.9°F3.8°C
Winds 12.7 mph 20.4 kmh 3.5 mph 5.6 kmh 7.0 mph WSW11.3 kmh WSW
Wind Gusts 19.6 mph31.5 kmh 3.5 mph5.6 kmh 10.0 mph16.1 kmh
Humidity 94% 81% 90%
Pressure 29.97 in1014.9 mb 29.58 in1001.7 mb -
Precipitation 0.34 in8.6 mm - -
Hour Temp Dew Point Humidity Winds Wind Gusts Pressure Precip Precip Rate Daily Precip Total
12:00 AM 56.9°F13.8°C 52.4°F11.3°C 85% 9.2 mph NW14.8 kmh NW 16.1 mph25.9 kmh 29.78 in1008.5 mb - 0.00 in0.0 mm 0.00 in0.0 mm
12:10 AM 57.5°F14.2°C 52.4°F11.3°C 83% 9.2 mph WNW14.8 kmh WNW 11.5 mph18.5 kmh 29.77 in1008.1 mb - 0.00 in0.0 mm 0.00 in0.0 mm
12:20 AM 57.9°F14.4°C 52.4°F11.3°C 82% 8.1 mph NW13.0 kmh NW 17.3 mph27.8 kmh 29.77 in1008.1 mb - 0.00 in0.0 mm 0.00 in0.0 mm
12:30 AM 58.1°F14.5°C 52.6°F11.4°C 82% 11.5 mph NW18.5 kmh NW 16.1 mph25.9 kmh 29.77 in1008.1 mb - 0.00 in0.0 mm 0.00 in0.0 mm
12:40 AM 57.7°F14.3°C 52.9°F11.6°C 84% 12.7 mph NW20.4 kmh NW 15.0 mph24.1 kmh 29.76 in1007.8 mb - 0.00 in0.0 mm 0.00 in0.0 mm
12:50 AM 57.5°F14.2°C 53.0°F11.7°C 85% 8.1 mph WNW13.0 kmh WNW 15.0 mph24.1 kmh 29.75 in1007.5 mb - 0.00 in0.0 mm 0.00 in0.0 mm
01:00 AM 57.9°F14.4°C 52.8°F11.6°C 83% 10.4 mph WNW16.7 kmh WNW 16.1 mph25.9 kmh 29.75 in1007.5 mb - 0.00 in0.0 mm 0.00 in0.0 mm
01:10 AM 58.2°F14.6°C 52.7°F11.5°C 82% 10.4 mph NW16.7 kmh NW 11.5 mph18.5 kmh 29.75 in1007.5 mb - 0.00 in0.0 mm 0.00 in0.0 mm
01:20 AM 58.5°F14.7°C 53.0°F11.7°C 82% 9.2 mph NW14.8 kmh NW 11.5 mph18.5 kmh 29.75 in1007.5 mb - 0.00 in0.0 mm 0.00 in0.0 mm
01:30 AM 58.4°F14.7°C 52.9°F11.6°C 82% 10.4 mph NW16.7 kmh NW 17.3 mph27.8 kmh 29.74 in1007.1 mb - 0.00 in0.0 mm 0.00 in0.0 mm
01:40 AM 58.3°F14.6°C 53.1°F11.7°C 83% 10.4 mph NW16.7 kmh NW 17.3 mph27.8 kmh 29.74 in1007.1 mb - 0.00 in0.0 mm 0.00 in0.0 mm
01:50 AM 58.4°F14.7°C 53.3°F11.8°C 83% 9.2 mph NW14.8 kmh NW 17.3 mph27.8 kmh 29.73 in1006.8 mb - 0.00 in0.0 mm 0.00 in0.0 mm
02:00 AM 57.8°F14.3°C 53.3°F11.8°C 85% 9.2 mph NW14.8 kmh NW 12.7 mph20.4 kmh 29.73 in1006.8 mb - 0.00 in0.0 mm 0.00 in0.0 mm
02:10 AM 57.5°F14.2°C 53.7°F12.1°C 87% 8.1 mph NW13.0 kmh NW 16.1 mph25.9 kmh 29.73 in1006.8 mb - 0.01 in0.3 mm 0.01 in0.3 mm
02:20 AM 57.3°F14.1°C 53.4°F11.9°C 87% 8.1 mph NW13.0 kmh NW 9.2 mph14.8 kmh 29.73 in1006.8 mb - 0.00 in0.0 mm 0.01 in0.3 mm
02:30 AM 57.4°F14.1°C 53.5°F11.9°C 87% 6.9 mph NW11.1 kmh NW 9.2 mph14.8 kmh 29.72 in1006.4 mb - 0.00 in0.0 mm 0.01 in0.3 mm
02:40 AM 57.4°F14.1°C 53.3°F11.8°C 86% 9.2 mph NW14.8 kmh NW 15.0 mph24.1 kmh 29.71 in1006.1 mb - 0.00 in0.0 mm 0.01 in0.3 mm
02:50 AM 57.9°F14.4°C 53.4°F11.9°C 85% 8.1 mph NW13.0 kmh NW 11.5 mph18.5 kmh 29.71 in1006.1 mb - 0.00 in0.0 mm 0.01 in0.3 mm
03:00 AM 57.8°F14.3°C 53.3°F11.8°C 85% 6.9 mph NW11.1 kmh NW 9.2 mph14.8 kmh 29.71 in1006.1 mb - 0.00 in0.0 mm 0.01 in0.3 mm
03:10 AM 57.3°F14.1°C 53.8°F12.1°C 88% 6.9 mph NW11.1 kmh NW 9.2 mph14.8 kmh 29.71 in1006.1 mb - 0.03 in0.8 mm 0.04 in1.0 mm
03:20 AM 56.9°F13.8°C 53.7°F12.1°C 89% 5.8 mph N9.3 kmh N 13.8 mph22.2 kmh 29.71 in1006.1 mb - 0.00 in0.0 mm 0.04 in1.0 mm
03:30 AM 57.1°F13.9°C 53.6°F12.0°C 88% 8.1 mph NW13.0 kmh NW 11.5 mph18.5 kmh 29.70 in1005.8 mb - 0.02 in0.5 mm 0.06 in1.5 mm
03:40 AM 57.2°F14.0°C 53.7°F12.1°C 88% 4.6 mph NW7.4 kmh NW 6.9 mph11.1 kmh 29.69 in1005.4 mb - 0.01 in0.3 mm 0.07 in1.8 mm
03:50 AM 57.7°F14.3°C 53.9°F12.2°C 87% 4.6 mph NNW7.4 kmh NNW 4.6 mph7.4 kmh 29.70 in1005.8 mb - 0.00 in0.0 mm 0.07 in1.8 mm
04:00 AM 58.0°F14.4°C 53.9°F12.2°C 86% 6.9 mph NW11.1 kmh NW 13.8 mph22.2 kmh 29.69 in1005.4 mb - 0.00 in0.0 mm 0.07 in1.8 mm
04:10 AM 58.0°F14.4°C 53.9°F12.2°C 86% 6.9 mph NW11.1 kmh NW 10.4 mph16.7 kmh 29.69 in1005.4 mb - 0.00 in0.0 mm 0.07 in1.8 mm
04:20 AM 57.7°F14.3°C 53.9°F12.2°C 87% 10.4 mph NW16.7 kmh NW 16.1 mph25.9 kmh 29.68 in1005.1 mb - 0.00 in0.0 mm 0.07 in1.8 mm
04:30 AM 57.5°F14.2°C 54.0°F12.2°C 88% 5.8 mph NW9.3 kmh NW 13.8 mph22.2 kmh 29.68 in1005.1 mb - 0.01 in0.3 mm 0.08 in2.0 mm
04:40 AM 57.4°F14.1°C 53.9°F12.2°C 88% 9.2 mph NW14.8 kmh NW 11.5 mph18.5 kmh 29.68 in1005.1 mb - 0.00 in0.0 mm 0.08 in2.0 mm
04:50 AM 57.6°F14.2°C 54.1°F12.3°C 88% 11.5 mph NW18.5 kmh NW 16.1 mph25.9 kmh 29.68 in1005.1 mb - 0.00 in0.0 mm 0.08 in2.0 mm
05:00 AM 57.5°F14.2°C 54.0°F12.2°C 88% 10.4 mph NW16.7 kmh NW 19.6 mph31.5 kmh 29.67 in1004.7 mb - 0.01 in0.3 mm 0.09 in2.3 mm
05:10 AM 57.2°F14.0°C 54.3°F12.4°C 90% 10.4 mph NW16.7 kmh NW 17.3 mph27.8 kmh 29.66 in1004.4 mb - 0.01 in0.3 mm 0.10 in2.5 mm
05:20 AM 57.1°F13.9°C 54.2°F12.3°C 90% 10.4 mph NW16.7 kmh NW 17.3 mph27.8 kmh 29.66 in1004.4 mb - 0.02 in0.5 mm 0.12 in3.0 mm
05:30 AM 57.0°F13.9°C 54.4°F12.4°C 91% 6.9 mph NW11.1 kmh NW 11.5 mph18.5 kmh 29.64 in1003.7 mb - 0.02 in0.5 mm 0.14 in3.6 mm
05:40 AM 57.1°F13.9°C 54.5°F12.5°C 91% 6.9 mph NW11.1 kmh NW 11.5 mph18.5 kmh 29.64 in1003.7 mb - 0.01 in0.3 mm 0.15 in3.8 mm
05:50 AM 57.3°F14.1°C 54.7°F12.6°C 91% 6.9 mph NW11.1 kmh NW 8.1 mph13.0 kmh 29.64 in1003.7 mb - 0.00 in0.0 mm 0.15 in3.8 mm
06:00 AM 57.4°F14.1°C 54.5°F12.5°C 90% 5.8 mph NW9.3 kmh NW 12.7 mph20.4 kmh 29.63 in1003.4 mb - 0.01 in0.3 mm 0.16 in4.1 mm
06:10 AM 57.8°F14.3°C 54.6°F12.6°C 89% 5.8 mph WNW9.3 kmh WNW 9.2 mph14.8 kmh 29.63 in1003.4 mb - 0.00 in0.0 mm 0.16 in4.1 mm
06:20 AM 58.1°F14.5°C 54.6°F12.6°C 88% 5.8 mph NW9.3 kmh NW 9.2 mph14.8 kmh 29.63 in1003.4 mb - 0.00 in0.0 mm 0.16 in4.1 mm
06:30 AM 57.9°F14.4°C 54.3°F12.4°C 88% 4.6 mph NNW7.4 kmh NNW 12.7 mph20.4 kmh 29.63 in1003.4 mb - 0.00 in0.0 mm 0.16 in4.1 mm
06:40 AM 58.0°F14.4°C 54.5°F12.5°C 88% 6.9 mph NW11.1 kmh NW 12.7 mph20.4 kmh 29.62 in1003.0 mb - 0.00 in0.0 mm 0.16 in4.1 mm
06:50 AM 58.0°F14.4°C 54.5°F12.5°C 88% 4.6 mph NNW7.4 kmh NNW 8.1 mph13.0 kmh 29.61 in1002.7 mb - 0.00 in0.0 mm 0.16 in4.1 mm
07:00 AM 57.8°F14.3°C 54.3°F12.4°C 88% 4.6 mph WNW7.4 kmh WNW 5.8 mph9.3 kmh 29.61 in1002.7 mb - 0.00 in0.0 mm 0.16 in4.1 mm
07:10 AM 57.6°F14.2°C 54.4°F12.4°C 89% 5.8 mph NW9.3 kmh NW 8.1 mph13.0 kmh 29.61 in1002.7 mb - 0.00 in0.0 mm 0.16 in4.1 mm
07:20 AM 57.7°F14.3°C 54.2°F12.3°C 88% 4.6 mph NW7.4 kmh NW 11.5 mph18.5 kmh 29.61 in1002.7 mb - 0.00 in0.0 mm 0.16 in4.1 mm
07:30 AM 58.0°F14.4°C 54.4°F12.4°C 88% 5.8 mph NNW9.3 kmh NNW 8.1 mph13.0 kmh 29.61 in1002.7 mb - 0.00 in0.0 mm 0.16 in4.1 mm
07:40 AM 57.9°F14.4°C 54.4°F12.4°C 88% 5.8 mph NNW9.3 kmh NNW 9.2 mph14.8 kmh 29.61 in1002.7 mb - 0.00 in0.0 mm 0.16 in4.1 mm
07:50 AM 57.9°F14.4°C 54.4°F12.4°C 88% 4.6 mph NW7.4 kmh NW 6.9 mph11.1 kmh 29.61 in1002.7 mb - 0.00 in0.0 mm 0.16 in4.1 mm
08:00 AM 58.1°F14.5°C 54.6°F12.6°C 88% 6.9 mph NW11.1 kmh NW 11.5 mph18.5 kmh 29.60 in1002.4 mb - 0.00 in0.0 mm 0.16 in4.1 mm
08:10 AM 58.3°F14.6°C 54.4°F12.4°C 87% 4.6 mph NW7.4 kmh NW 5.8 mph9.3 kmh 29.59 in1002.0 mb - 0.00 in0.0 mm 0.16 in4.1 mm
08:20 AM 58.4°F14.7°C 54.5°F12.5°C 87% 4.6 mph NNW7.4 kmh NNW 9.2 mph14.8 kmh 29.60 in1002.4 mb - 0.00 in0.0 mm 0.16 in4.1 mm
08:30 AM 58.3°F14.6°C 54.8°F12.7°C 88% 3.5 mph NW5.6 kmh NW 5.8 mph9.3 kmh 29.60 in1002.4 mb - 0.00 in0.0 mm 0.16 in4.1 mm
08:40 AM 58.1°F14.5°C 54.6°F12.6°C 88% 3.5 mph NW5.6 kmh NW 5.8 mph9.3 kmh 29.60 in1002.4 mb - 0.00 in0.0 mm 0.16 in4.1 mm
08:50 AM 58.2°F14.6°C 54.6°F12.6°C 88% 5.8 mph NNW9.3 kmh NNW 11.5 mph18.5 kmh 29.59 in1002.0 mb - 0.00 in0.0 mm 0.16 in4.1 mm
09:00 AM 58.3°F14.6°C 54.8°F12.7°C 88% 5.8 mph N9.3 kmh N 8.1 mph13.0 kmh 29.60 in1002.4 mb - 0.00 in0.0 mm 0.16 in4.1 mm
09:10 AM 58.5°F14.7°C 55.0°F12.8°C 88% 5.8 mph NW9.3 kmh NW 8.1 mph13.0 kmh 29.60 in1002.4 mb - 0.00 in0.0 mm 0.16 in4.1 mm
09:20 AM 58.7°F14.8°C 54.8°F12.7°C 87% 3.5 mph NNW5.6 kmh NNW 3.5 mph5.6 kmh 29.59 in1002.0 mb - 0.00 in0.0 mm 0.16 in4.1 mm
09:30 AM 59.0°F15.0°C 55.1°F12.8°C 87% 6.9 mph NW11.1 kmh NW 8.1 mph13.0 kmh 29.59 in1002.0 mb - 0.00 in0.0 mm 0.16 in4.1 mm
09:40 AM 59.1°F15.1°C 55.2°F12.9°C 87% 4.6 mph NW7.4 kmh NW 5.8 mph9.3 kmh 29.59 in1002.0 mb - 0.00 in0.0 mm 0.16 in4.1 mm
09:50 AM 59.3°F15.2°C 55.1°F12.8°C 86% 5.8 mph NNW9.3 kmh NNW 8.1 mph13.0 kmh 29.59 in1002.0 mb - 0.00 in0.0 mm 0.16 in4.1 mm
10:00 AM 59.6°F15.3°C 55.1°F12.8°C 85% 5.8 mph NNW9.3 kmh NNW 10.4 mph16.7 kmh 29.59 in1002.0 mb - 0.00 in0.0 mm 0.16 in4.1 mm
10:10 AM 59.9°F15.5°C 55.4°F13.0°C 85% 5.8 mph NW9.3 kmh NW 10.4 mph16.7 kmh 29.59 in1002.0 mb - 0.00 in0.0 mm 0.16 in4.1 mm
10:20 AM 60.1°F15.6°C 55.2°F12.9°C 84% 5.8 mph NW9.3 kmh NW 6.9 mph11.1 kmh 29.59 in1002.0 mb - 0.01 in0.3 mm 0.17 in4.3 mm
10:30 AM 60.2°F15.7°C 55.0°F12.8°C 83% 6.9 mph N11.1 kmh N 9.2 mph14.8 kmh 29.58 in1001.7 mb - 0.00 in0.0 mm 0.17 in4.3 mm
10:40 AM 60.5°F15.8°C 55.3°F12.9°C 83% 4.6 mph N7.4 kmh N 3.5 mph5.6 kmh 29.58 in1001.7 mb - 0.00 in0.0 mm 0.17 in4.3 mm
10:50 AM 59.9°F15.5°C 54.0°F12.2°C 81% 5.8 mph ENE9.3 kmh ENE 8.1 mph13.0 kmh 29.59 in1002.0 mb - 0.00 in0.0 mm 0.17 in4.3 mm
11:00 AM 55.7°F13.2°C 51.3°F10.7°C 85% 4.6 mph NE7.4 kmh NE 6.9 mph11.1 kmh 29.58 in1001.7 mb - 0.00 in0.0 mm 0.17 in4.3 mm
11:10 AM 53.9°F12.2°C 50.7°F10.4°C 89% 5.8 mph ENE9.3 kmh ENE 11.5 mph18.5 kmh 29.60 in1002.4 mb - 0.00 in0.0 mm 0.17 in4.3 mm
11:20 AM 52.5°F11.4°C 50.2°F10.1°C 92% 11.5 mph E18.5 kmh E 19.6 mph31.5 kmh 29.61 in1002.7 mb - 0.00 in0.0 mm 0.17 in4.3 mm
11:30 AM 44.7°F7.1°C 41.4°F5.2°C 88% 10.4 mph ESE16.7 kmh ESE 13.8 mph22.2 kmh 29.62 in1003.0 mb - 0.01 in0.3 mm 0.18 in4.6 mm
11:40 AM 42.6°F5.9°C 40.5°F4.7°C 92% 9.2 mph E14.8 kmh E 16.1 mph25.9 kmh 29.63 in1003.4 mb - 0.02 in0.5 mm 0.19 in4.8 mm
11:50 AM 42.0°F5.6°C 40.1°F4.5°C 93% 4.6 mph N7.4 kmh N 6.9 mph11.1 kmh 29.63 in1003.4 mb - 0.01 in0.3 mm 0.19 in4.8 mm
12:00 PM 41.6°F5.3°C 39.7°F4.3°C 93% 6.9 mph N11.1 kmh N 10.4 mph16.7 kmh 29.63 in1003.4 mb - 0.00 in0.0 mm 0.19 in4.8 mm
12:10 PM 40.9°F4.9°C 39.0°F3.9°C 93% 9.2 mph N14.8 kmh N 15.0 mph24.1 kmh 29.65 in1004.1 mb - 0.00 in0.0 mm 0.19 in4.8 mm
12:20 PM 39.8°F4.3°C 37.9°F3.3°C 93% 5.8 mph N9.3 kmh N 9.2 mph14.8 kmh 29.65 in1004.1 mb - 0.01 in0.3 mm 0.20 in5.1 mm
12:30 PM 39.1°F3.9°C 37.2°F2.9°C 93% 6.9 mph N11.1 kmh N 15.0 mph24.1 kmh 29.66 in1004.4 mb - 0.00 in0.0 mm 0.20 in5.1 mm
12:40 PM 38.6°F3.7°C 36.8°F2.7°C 93% 8.1 mph N13.0 kmh N 8.1 mph13.0 kmh 29.66 in1004.4 mb - 0.00 in0.0 mm 0.20 in5.1 mm
12:50 PM 38.2°F3.4°C 36.4°F2.4°C 93% 6.9 mph N11.1 kmh N 9.2 mph14.8 kmh 29.66 in1004.4 mb - 0.00 in0.0 mm 0.20 in5.1 mm
01:00 PM 37.9°F3.3°C 36.1°F2.3°C 93% 3.5 mph N5.6 kmh N 4.6 mph7.4 kmh 29.68 in1005.1 mb - 0.01 in0.3 mm 0.21 in5.3 mm
01:10 PM 37.7°F3.2°C 35.9°F2.2°C 93% 3.5 mph N5.6 kmh N 9.2 mph14.8 kmh 29.68 in1005.1 mb - 0.00 in0.0 mm 0.21 in5.3 mm
01:20 PM 37.5°F3.1°C 35.9°F2.2°C 94% 3.5 mph N5.6 kmh N 9.2 mph14.8 kmh 29.69 in1005.4 mb - 0.01 in0.3 mm 0.22 in5.6 mm
01:30 PM 36.9°F2.7°C 35.1°F1.7°C 93% 3.5 mph N5.6 kmh N 4.6 mph7.4 kmh 29.70 in1005.8 mb - 0.01 in0.3 mm 0.23 in5.8 mm
01:40 PM 36.4°F2.4°C 34.6°F1.4°C 93% 4.6 mph N7.4 kmh N 5.8 mph9.3 kmh 29.70 in1005.8 mb - 0.03 in0.8 mm 0.25 in6.4 mm
01:50 PM 36.1°F2.3°C 34.5°F1.4°C 94% 4.6 mph N7.4 kmh N 6.9 mph11.1 kmh 29.70 in1005.8 mb - 0.01 in0.3 mm 0.26 in6.6 mm
02:00 PM 36.1°F2.3°C 34.5°F1.4°C 94% 3.5 mph N5.6 kmh N 4.6 mph7.4 kmh 29.71 in1006.1 mb - 0.01 in0.3 mm 0.27 in6.9 mm
02:10 PM 36.1°F2.3°C 34.5°F1.4°C 94% 3.5 mph N5.6 kmh N 4.6 mph7.4 kmh 29.73 in1006.8 mb - 0.00 in0.0 mm 0.27 in6.9 mm
02:20 PM 35.5°F1.9°C 33.9°F1.1°C 94% 6.9 mph N11.1 kmh N 9.2 mph14.8 kmh 29.74 in1007.1 mb - 0.02 in0.5 mm 0.29 in7.4 mm
02:30 PM 35.1°F1.7°C 33.5°F0.8°C 94% 5.8 mph N9.3 kmh N 11.5 mph18.5 kmh 29.75 in1007.5 mb - 0.01 in0.3 mm 0.30 in7.6 mm
02:40 PM 34.8°F1.6°C 33.3°F0.7°C 94% 8.1 mph N13.0 kmh N 11.5 mph18.5 kmh 29.76 in1007.8 mb - 0.00 in0.0 mm 0.30 in7.6 mm
02:50 PM 34.3°F1.3°C 32.8°F0.4°C 94% 4.6 mph N7.4 kmh N 4.6 mph7.4 kmh 29.76 in1007.8 mb - 0.01 in0.3 mm 0.31 in7.9 mm
03:00 PM 33.5°F0.8°C 31.6°F-0.2°C 93% 6.9 mph N11.1 kmh N 11.5 mph18.5 kmh 29.76 in1007.8 mb - 0.00 in0.0 mm 0.31 in7.9 mm
03:10 PM 32.9°F0.5°C 31.1°F-0.5°C 93% 6.9 mph N11.1 kmh N 8.1 mph13.0 kmh 29.78 in1008.5 mb - 0.01 in0.3 mm 0.32 in8.1 mm
03:20 PM 32.1°F0.1°C 30.3°F-0.9°C 93% 6.9 mph N11.1 kmh N 9.2 mph14.8 kmh 29.78 in1008.5 mb - 0.00 in0.0 mm 0.32 in8.1 mm
03:30 PM 31.6°F-0.2°C 29.8°F-1.2°C 93% 4.6 mph N7.4 kmh N 5.8 mph9.3 kmh 29.79 in1008.8 mb - 0.00 in0.0 mm 0.32 in8.1 mm
03:40 PM 31.5°F-0.3°C 29.7°F-1.3°C 93% 3.5 mph N5.6 kmh N 6.9 mph11.1 kmh 29.80 in1009.1 mb - 0.01 in0.3 mm 0.33 in8.4 mm
03:50 PM 30.8°F-0.7°C 29.0°F-1.7°C 93% 6.9 mph N11.1 kmh N 10.4 mph16.7 kmh 29.82 in1009.8 mb - 0.01 in0.3 mm 0.34 in8.6 mm
04:00 PM 30.3°F-0.9°C 28.5°F-1.9°C 93% 5.8 mph ESE9.3 kmh ESE 6.9 mph11.1 kmh 29.82 in1009.8 mb - 0.00 in0.0 mm 0.34 in8.6 mm
04:10 PM 29.8°F-1.2°C 27.8°F-2.3°C 92% 6.9 mph E11.1 kmh E 12.7 mph20.4 kmh 29.82 in1009.8 mb - 0.00 in0.0 mm 0.34 in8.6 mm
04:20 PM 29.2°F-1.6°C 27.2°F-2.7°C 92% 8.1 mph E13.0 kmh E 11.5 mph18.5 kmh 29.83 in1010.2 mb - 0.00 in0.0 mm 0.34 in8.6 mm
04:30 PM 28.9°F-1.7°C 27.1°F-2.7°C 93% 9.2 mph E14.8 kmh E 12.7 mph20.4 kmh 29.84 in1010.5 mb - 0.00 in0.0 mm 0.34 in8.6 mm
04:40 PM 28.3°F-2.1°C 26.3°F-3.2°C 92% 6.9 mph E11.1 kmh E 9.2 mph14.8 kmh 29.85 in1010.8 mb - 0.00 in0.0 mm 0.34 in8.6 mm
04:50 PM 27.5°F-2.5°C 25.4°F-3.7°C 92% 8.1 mph E13.0 kmh E 10.4 mph16.7 kmh 29.87 in1011.5 mb - 0.00 in0.0 mm 0.34 in8.6 mm
05:00 PM 26.6°F-3.0°C 24.5°F-4.2°C 92% 9.2 mph E14.8 kmh E 13.8 mph22.2 kmh 29.87 in1011.5 mb - 0.00 in0.0 mm 0.34 in8.6 mm
05:10 PM 26.1°F-3.3°C 23.8°F-4.6°C 91% 5.8 mph ESE9.3 kmh ESE 6.9 mph11.1 kmh 29.86 in1011.2 mb - 0.00 in0.0 mm 0.34 in8.6 mm
05:20 PM 25.3°F-3.7°C 23.1°F-4.9°C 91% 6.9 mph SE11.1 kmh SE 11.5 mph18.5 kmh 29.85 in1010.8 mb - 0.00 in0.0 mm 0.34 in8.6 mm
05:30 PM 24.5°F-4.2°C 22.5°F-5.3°C 92% 5.8 mph ENE9.3 kmh ENE 11.5 mph18.5 kmh 29.86 in1011.2 mb - 0.00 in0.0 mm 0.34 in8.6 mm
05:40 PM 24.0°F-4.4°C 22.0°F-5.6°C 92% 5.8 mph ESE9.3 kmh ESE 8.1 mph13.0 kmh 29.88 in1011.9 mb - 0.00 in0.0 mm 0.34 in8.6 mm
05:50 PM 24.0°F-4.4°C 22.3°F-5.4°C 93% 5.8 mph E9.3 kmh E 9.2 mph14.8 kmh 29.87 in1011.5 mb - 0.00 in0.0 mm 0.34 in8.6 mm
06:00 PM 23.8°F-4.6°C 22.1°F-5.5°C 93% 3.5 mph E5.6 kmh E 5.8 mph9.3 kmh 29.88 in1011.9 mb - 0.00 in0.0 mm 0.34 in8.6 mm
06:10 PM 23.5°F-4.7°C 21.8°F-5.7°C 93% 4.6 mph ESE7.4 kmh ESE 9.2 mph14.8 kmh 29.88 in1011.9 mb - 0.00 in0.0 mm 0.34 in8.6 mm
06:20 PM 23.1°F-4.9°C 21.4°F-5.9°C 93% 6.9 mph SE11.1 kmh SE 11.5 mph18.5 kmh 29.89 in1012.2 mb - 0.00 in0.0 mm 0.34 in8.6 mm
06:30 PM 22.6°F-5.2°C 20.9°F-6.2°C 93% 6.9 mph SE11.1 kmh SE 12.7 mph20.4 kmh 29.90 in1012.5 mb - 0.00 in0.0 mm 0.34 in8.6 mm
06:40 PM 22.5°F-5.3°C 20.7°F-6.3°C 93% 5.8 mph SE9.3 kmh SE 10.4 mph16.7 kmh 29.91 in1012.9 mb - 0.00 in0.0 mm 0.34 in8.6 mm
06:50 PM 22.3°F-5.4°C 20.6°F-6.3°C 93% 4.6 mph ESE7.4 kmh ESE 6.9 mph11.1 kmh 29.91 in1012.9 mb - 0.00 in0.0 mm 0.34 in8.6 mm
07:00 PM 21.8°F-5.7°C 20.1°F-6.6°C 93% 9.2 mph ESE14.8 kmh ESE 16.1 mph25.9 kmh 29.91 in1012.9 mb - 0.00 in0.0 mm 0.34 in8.6 mm
07:10 PM 21.6°F-5.8°C 19.9°F-6.7°C 93% 5.8 mph SE9.3 kmh SE 9.2 mph14.8 kmh 29.93 in1013.5 mb - 0.00 in0.0 mm 0.34 in8.6 mm
07:20 PM 21.2°F-6.0°C 19.5°F-6.9°C 93% 5.8 mph ESE9.3 kmh ESE 10.4 mph16.7 kmh 29.95 in1014.2 mb - 0.00 in0.0 mm 0.34 in8.6 mm
07:30 PM 20.7°F-6.3°C 19.0°F-7.2°C 93% 4.6 mph ESE7.4 kmh ESE 6.9 mph11.1 kmh 29.97 in1014.9 mb - 0.00 in0.0 mm 0.34 in8.6 mm
07:40 PM 20.3°F-6.5°C 18.3°F-7.6°C 92% 5.8 mph SE9.3 kmh SE 10.4 mph16.7 kmh 29.97 in1014.9 mb - 0.00 in0.0 mm 0.34 in8.6 mm
07:50 PM 20.0°F-6.7°C 18.3°F-7.6°C 93% 4.6 mph SE7.4 kmh SE 8.1 mph13.0 kmh 29.96 in1014.6 mb - 0.00 in0.0 mm 0.34 in8.6 mm
08:00 PM 19.8°F-6.8°C 18.1°F-7.7°C 93% 6.9 mph SE11.1 kmh SE 19.6 mph31.5 kmh 29.96 in1014.6 mb - 0.00 in0.0 mm 0.34 in8.6 mm
08:10 PM 19.5°F-6.9°C 17.8°F-7.9°C 93% 5.8 mph SE9.3 kmh SE 12.7 mph20.4 kmh 29.95 in1014.2 mb - 0.00 in0.0 mm 0.34 in8.6 mm
08:20 PM 19.1°F-7.2°C 17.4°F-8.1°C 93% 5.8 mph SE9.3 kmh SE 8.1 mph13.0 kmh 29.94 in1013.9 mb - 0.00 in0.0 mm 0.34 in8.6 mm
08:30 PM 19.0°F-7.2°C 17.3°F-8.2°C 93% 5.8 mph SE9.3 kmh SE 9.2 mph14.8 kmh 29.94 in1013.9 mb - 0.00 in0.0 mm 0.34 in8.6 mm
08:40 PM 18.9°F-7.3°C 17.2°F-8.2°C 93% 8.1 mph SE13.0 kmh SE 9.2 mph14.8 kmh 29.94 in1013.9 mb - 0.00 in0.0 mm 0.34 in8.6 mm
08:50 PM 18.8°F-7.3°C 17.1°F-8.3°C 93% 8.1 mph SE13.0 kmh SE 11.5 mph18.5 kmh 29.93 in1013.5 mb - 0.00 in0.0 mm 0.34 in8.6 mm
09:00 PM 18.8°F-7.3°C 17.1°F-8.3°C 93% 5.8 mph SE9.3 kmh SE 5.8 mph9.3 kmh 29.92 in1013.2 mb - 0.00 in0.0 mm 0.34 in8.6 mm
09:10 PM 18.8°F-7.3°C 17.1°F-8.3°C 93% 5.8 mph SE9.3 kmh SE 4.6 mph7.4 kmh 29.94 in1013.9 mb - 0.00 in0.0 mm 0.34 in8.6 mm
09:20 PM 18.8°F-7.3°C 17.1°F-8.3°C 93% 6.9 mph SE11.1 kmh SE 11.5 mph18.5 kmh 29.94 in1013.9 mb - 0.00 in0.0 mm 0.34 in8.6 mm
09:30 PM 18.7°F-7.4°C 17.0°F-8.3°C 93% 6.9 mph SE11.1 kmh SE 11.5 mph18.5 kmh 29.93 in1013.5 mb - 0.00 in0.0 mm 0.34 in8.6 mm
09:40 PM 18.3°F-7.6°C 16.6°F-8.6°C 93% 8.1 mph SE13.0 kmh SE 10.4 mph16.7 kmh 29.93 in1013.5 mb - 0.00 in0.0 mm 0.34 in8.6 mm
09:50 PM 17.9°F-7.8°C 16.0°F-8.9°C 92% 9.2 mph SE14.8 kmh SE 12.7 mph20.4 kmh 29.93 in1013.5 mb - 0.00 in0.0 mm 0.34 in8.6 mm
10:00 PM 17.6°F-8.0°C 15.7°F-9.1°C 92% 4.6 mph SE7.4 kmh SE 6.9 mph11.1 kmh 29.93 in1013.5 mb - 0.00 in0.0 mm 0.34 in8.6 mm
10:10 PM 17.6°F-8.0°C 15.9°F-8.9°C 93% 4.6 mph SE7.4 kmh SE 9.2 mph14.8 kmh 29.94 in1013.9 mb - 0.00 in0.0 mm 0.34 in8.6 mm
10:20 PM 17.4°F-8.1°C 15.5°F-9.2°C 92% 4.6 mph SE7.4 kmh SE 6.9 mph11.1 kmh 29.95 in1014.2 mb - 0.00 in0.0 mm 0.34 in8.6 mm
10:30 PM 17.3°F-8.2°C 15.4°F-9.2°C 92% 4.6 mph SE7.4 kmh SE 5.8 mph9.3 kmh 29.96 in1014.6 mb - 0.00 in0.0 mm 0.34 in8.6 mm
10:40 PM 17.1°F-8.3°C 15.2°F-9.3°C 92% 6.9 mph ESE11.1 kmh ESE 11.5 mph18.5 kmh 29.95 in1014.2 mb - 0.00 in0.0 mm 0.34 in8.6 mm
10:50 PM 17.0°F-8.3°C 15.1°F-9.4°C 92% 6.9 mph E11.1 kmh E 9.2 mph14.8 kmh 29.96 in1014.6 mb - 0.00 in0.0 mm 0.34 in8.6 mm
11:00 PM 16.9°F-8.4°C 15.0°F-9.4°C 92% 5.8 mph SE9.3 kmh SE 10.4 mph16.7 kmh 29.96 in1014.6 mb - 0.00 in0.0 mm 0.34 in8.6 mm
11:10 PM 16.9°F-8.4°C 15.2°F-9.3°C 93% 4.6 mph ESE7.4 kmh ESE 8.1 mph13.0 kmh 29.96 in1014.6 mb - 0.00 in0.0 mm 0.34 in8.6 mm
11:20 PM 17.0°F-8.3°C 15.3°F-9.3°C 93% 5.8 mph ESE9.3 kmh ESE 8.1 mph13.0 kmh 29.95 in1014.2 mb - 0.00 in0.0 mm 0.34 in8.6 mm
11:30 PM 17.1°F-8.3°C 15.4°F-9.2°C 93% 6.9 mph SE11.1 kmh SE 8.1 mph13.0 kmh 29.93 in1013.5 mb - 0.00 in0.0 mm 0.34 in8.6 mm
11:40 PM 17.2°F-8.2°C 15.5°F-9.2°C 93% 5.8 mph SE9.3 kmh SE 10.4 mph16.7 kmh 29.96 in1014.6 mb - 0.00 in0.0 mm 0.34 in8.6 mm
11:50 PM 17.3°F-8.2°C 15.6°F-9.1°C 93% 3.5 mph SE5.6 kmh SE 6.9 mph11.1 kmh 29.96 in1014.6 mb - 0.00 in0.0 mm 0.34 in8.6 mm